Airfield :







YOU CAN JOIN US ON...

 
LOGIN :

Register | Disclaimer

   EN    FR    IT 

 









Legend :    VFR   Marginal VFR   IFR   Intensive IFR   Very Intensive IFR
Visi :
Ceiling :
>= 8 km
>= 3000ft
5 to 8 km
1000 to 3000 ft
1500m to 5 km
500 to 1000 ft
800 to 1500m
200 to 500 ft
< 800m
< 200 ft
Symbols :   Thunderstorms  Fog  Heavy snow  Heavy precipitations  Wind > 20 kt







- Airport Elevation : 241 ft
- IATA code : CEF


KCEF - Westover ARB/Metropolitan

CURRENT METAR :
  • 201856Z 26008KT 10SM FEW050 BKN170 35/23 A2977 RMK AO2A SLP084 T03480228

EXPIRED METARs :
  • 201756Z 29011KT 10SM FEW050 BKN180 35/23 A2978 RMK AO2A SLP088 T03500226 10350 20285 58011
  • 201656Z 28009KT 10SM SCT043 OVC200 34/23 A2980 RMK AO2A SLP095 T03420226

TAF TAF KCEF
Valid from the 20 at 18:00 until the 22 at 00:00 UTC


201800Z 2018/2124 29009KT 9999 FEW050 BKN200 QNH2976INS
BECMG 2022/2023 VRB06KT 9999 FEW050 FEW120 QNH2969INS
BECMG 2116/2117 24010G20KT 9999 VCTS FEW035CB BKN060 BKN200 QNH2968INS
TEMPO 2117/2122 29025G40KT 4800 TSRA BKN035CB
BECMG 2122/2123 29009KT 9999 NSW FEW035 SCT100 SCT250 QNH2972INS TX37/2020Z TN26/2110Z
KZBW FIR / North America



MET'MAP, your aeronautical weather chart ! - Copyright ORBIFLY December 2007 - Disclaimer

ORBIFLY MET'MAP TEAM :

Programming & Development : Alexandra Zaïnal
Concept & Development : Baudouin d'Aumeries
Co-Development & Prog : Marc-Olivier Méhu
Technical & hardware support : Manuel Goepfert

Contact : metmap@orbifly.com




SOURCES & CREDITS :

   NOAA